Time;durP1;ratioP1;P1;durP2;ratioP2;P2;SDS_P1;SDS_P2;PMS_P1;PMS_P2;Temp;Humidity;BMP_temperature;BMP_pressure;BME280_temperature;BME280_humidity;BME280_pressure;Samples;Min_cycle;Max_cycle;Signal;HPM_P1;HPM_P2
2021/11/04 00:01:21;;;;;;;36.33;21.30;;;;;;;5.11;nan;99692.56;4928892;29;20051;-84
2021/11/04 00:03:48;;;;;;;35.57;19.33;;;;;;;5.06;nan;99687.41;4914256;29;20597;-83
2021/11/04 00:06:15;;;;;;;36.87;20.93;;;;;;;5.12;nan;99676.81;4921668;29;20034;-82
2021/11/04 00:08:42;;;;;;;37.07;21.17;;;;;;;5.07;nan;99673.41;4937615;28;20045;-81
2021/11/04 00:11:08;;;;;;;47.13;25.00;;;;;;;5.13;nan;99672.44;4923916;29;20440;-82
2021/11/04 00:13:38;;;;;;;45.13;22.53;;;;;;;5.15;nan;99660.22;4912565;29;20415;-83
2021/11/04 00:16:10;;;;;;;38.73;20.90;;;;;;;5.09;nan;99662.03;4943702;28;20036;-83
2021/11/04 00:18:37;;;;;;;39.07;21.97;;;;;;;5.11;nan;99661.13;4937933;29;20091;-82
2021/11/04 00:21:05;;;;;;;46.77;24.67;;;;;;;5.12;nan;99665.47;4916772;29;20051;-82
2021/11/04 00:23:37;;;;;;;43.67;23.07;;;;;;;5.09;nan;99666.41;4928223;29;20047;-82
2021/11/04 00:26:04;;;;;;;48.00;25.60;;;;;;;5.17;nan;99664.53;4931734;29;20032;-82
2021/11/04 00:28:31;;;;;;;44.93;24.57;;;;;;;5.23;nan;99666.22;4893267;28;20052;-81
2021/11/04 00:30:58;;;;;;;46.33;24.30;;;;;;;5.24;nan;99658.31;4916312;28;20662;-82
2021/11/04 00:33:25;;;;;;;44.50;23.87;;;;;;;5.17;nan;99656.69;4902133;29;20049;-82
2021/11/04 00:35:52;;;;;;;45.37;25.33;;;;;;;5.17;nan;99661.91;4918642;29;20048;-83
2021/11/04 00:38:19;;;;;;;44.70;24.10;;;;;;;5.05;nan;99656.88;4923448;29;20040;-82
2021/11/04 00:40:46;;;;;;;52.80;28.67;;;;;;;5.20;nan;99654.00;4914769;29;20053;-83
2021/11/04 00:43:13;;;;;;;50.67;25.93;;;;;;;5.26;nan;99648.69;4938951;28;20042;-82
2021/11/04 00:45:40;;;;;;;48.73;26.03;;;;;;;5.26;nan;99643.44;4926962;28;20320;-82
2021/11/04 00:48:07;;;;;;;49.63;26.00;;;;;;;5.26;nan;99647.81;4945075;29;20039;-82
2021/11/04 00:50:34;;;;;;;52.00;27.30;;;;;;;5.16;nan;99654.94;4925630;29;20050;-81
2021/11/04 00:53:00;;;;;;;49.53;26.47;;;;;;;5.23;nan;99640.03;4891866;29;20050;-82
2021/11/04 00:55:27;;;;;;;47.73;25.47;;;;;;;5.32;nan;99634.66;4916042;29;20408;-82
2021/11/04 00:57:54;;;;;;;49.27;27.43;;;;;;;5.26;nan;99632.13;4917875;29;20047;-82
2021/11/04 01:00:21;;;;;;;46.80;24.63;;;;;;;5.27;nan;99628.59;4934513;29;20051;-82
2021/11/04 01:02:49;;;;;;;51.60;27.27;;;;;;;5.22;nan;99635.69;4936602;28;20407;-81
2021/11/04 01:05:16;;;;;;;52.97;27.67;;;;;;;5.25;nan;99620.78;4909943;29;20043;-82
2021/11/04 01:07:43;;;;;;;55.60;28.07;;;;;;;5.21;nan;99629.59;4917641;29;20044;-82
2021/11/04 01:10:10;;;;;;;51.50;28.47;;;;;;;5.33;nan;99620.66;4924977;29;20408;-82
2021/11/04 01:12:37;;;;;;;50.90;26.13;;;;;;;5.37;nan;99631.03;4917887;29;20528;-82
2021/11/04 01:15:06;;;;;;;50.20;25.53;;;;;;;5.28;nan;99615.47;4933257;29;20035;-82
2021/11/04 01:17:33;;;;;;;50.33;26.40;;;;;;;5.19;nan;99614.75;4901740;29;20047;-82
2021/11/04 01:20:00;;;;;;;55.53;28.60;;;;;;;5.28;nan;99610.25;4945721;29;20046;-81
2021/11/04 01:22:27;;;;;;;56.23;28.87;;;;;;;5.41;nan;99610.91;4928147;29;20452;-81
2021/11/04 01:24:54;;;;;;;57.83;29.83;;;;;;;5.35;nan;99603.16;4915984;29;20062;-82
2021/11/04 01:27:21;;;;;;;54.43;28.37;;;;;;;5.25;nan;99615.53;4916603;29;20074;-82
2021/11/04 01:29:48;;;;;;;60.43;30.17;;;;;;;5.40;nan;99624.06;4936816;29;20632;-82
2021/11/04 01:32:15;;;;;;;55.00;28.20;;;;;;;5.28;nan;99615.47;4916165;29;20047;-82
2021/11/04 01:34:42;;;;;;;55.40;28.03;;;;;;;5.23;nan;99616.47;4917566;29;20035;-83
2021/11/04 01:37:09;;;;;;;57.30;30.47;;;;;;;5.19;nan;99607.78;4912186;29;20059;-82
2021/11/04 01:39:36;;;;;;;64.70;31.73;;;;;;;5.25;nan;99612.91;4931508;29;20043;-83
2021/11/04 01:42:03;;;;;;;55.90;28.17;;;;;;;5.35;nan;99611.88;4917505;29;20050;-81
2021/11/04 01:44:30;;;;;;;56.53;29.47;;;;;;;5.36;nan;99612.75;4916451;29;20621;-82
2021/11/04 01:46:57;;;;;;;56.83;29.27;;;;;;;5.34;nan;99617.16;4928354;29;20051;-81
2021/11/04 01:49:25;;;;;;;58.93;31.17;;;;;;;5.26;nan;99619.00;4913253;29;20032;-82
2021/11/04 01:51:53;;;;;;;54.93;29.23;;;;;;;5.27;nan;99607.66;4942320;28;20046;-82
2021/11/04 01:54:20;;;;;;;57.07;29.70;;;;;;;5.24;nan;99613.81;4918983;29;20039;-83
2021/11/04 01:56:47;;;;;;;59.27;30.40;;;;;;;5.27;nan;99611.13;4935425;29;20051;-82
2021/11/04 01:59:14;;;;;;;59.27;29.33;;;;;;;5.34;nan;99602.28;4889554;29;20089;-82
2021/11/04 02:01:41;;;;;;;59.83;30.67;;;;;;;5.41;nan;99586.50;4890843;29;20058;-82
2021/11/04 02:04:22;;;;;;;60.70;30.20;;;;;;;5.42;nan;99586.47;4933451;29;20068;-82
2021/11/04 02:07:00;;;;;;;56.80;29.23;;;;;;;5.53;nan;99575.78;4899313;29;20052;-82
2021/11/04 02:09:40;;;;;;;57.30;30.07;;;;;;;5.37;nan;99589.13;4934308;29;20041;-82
2021/11/04 02:12:26;;;;;;;62.00;30.13;;;;;;;5.45;nan;99578.53;4917794;29;20067;-83
2021/11/04 02:14:55;;;;;;;63.20;31.23;;;;;;;5.42;nan;99575.97;4934037;29;20040;-82
2021/11/04 02:17:22;;;;;;;59.53;30.23;;;;;;;5.44;nan;99562.84;4935347;29;20047;-83
2021/11/04 02:19:53;;;;;;;61.90;30.23;;;;;;;5.45;nan;99560.19;4914990;29;20059;-83
2021/11/04 02:22:26;;;;;;;62.57;32.57;;;;;;;5.39;nan;99565.56;4928532;29;20550;-83
2021/11/04 02:25:14;;;;;;;68.10;32.73;;;;;;;5.39;nan;99562.09;4937882;29;20042;-82
2021/11/04 02:27:51;;;;;;;59.00;31.40;;;;;;;5.29;nan;99563.97;4937656;29;20396;-82
2021/11/04 02:30:21;;;;;;;60.00;30.53;;;;;;;5.27;nan;99560.50;4924081;29;20536;-83
2021/11/04 02:32:49;;;;;;;68.90;34.27;;;;;;;5.36;nan;99571.69;4923384;29;20050;-83
2021/11/04 02:35:16;;;;;;;68.47;33.20;;;;;;;5.46;nan;99566.31;4926945;29;20786;-82
2021/11/04 02:37:44;;;;;;;58.87;29.67;;;;;;;5.34;nan;99559.53;4915849;29;20043;-83
2021/11/04 02:40:12;;;;;;;65.83;34.67;;;;;;;5.40;nan;99548.97;4946115;29;20046;-82
2021/11/04 02:42:40;;;;;;;61.67;29.00;;;;;;;5.45;nan;99541.84;4916624;29;20399;-83
2021/11/04 02:45:08;;;;;;;65.07;31.27;;;;;;;5.36;nan;99540.28;4918648;29;20039;-83
2021/11/04 02:47:37;;;;;;;59.40;30.00;;;;;;;5.32;nan;99538.59;4931517;29;20031;-83
2021/11/04 02:50:05;;;;;;;62.90;32.83;;;;;;;5.41;nan;99529.72;4918313;29;20046;-83
2021/11/04 02:52:33;;;;;;;63.63;31.27;;;;;;;5.34;nan;99531.59;4910775;29;20396;-83
2021/11/04 02:55:03;;;;;;;61.00;32.53;;;;;;;5.43;nan;99530.56;4928325;29;20094;-82
2021/11/04 02:57:30;;;;;;;65.50;30.90;;;;;;;5.40;nan;99525.38;4934938;29;20046;-81
2021/11/04 02:59:58;;;;;;;60.53;29.83;;;;;;;5.29;nan;99506.34;4919144;29;20396;-82
2021/11/04 03:02:25;;;;;;;58.17;30.67;;;;;;;5.39;nan;99501.84;4943984;28;20040;-83
2021/11/04 03:04:52;;;;;;;63.37;31.27;;;;;;;5.39;nan;99499.22;4919977;29;21723;-83
2021/11/04 03:07:19;;;;;;;69.93;32.07;;;;;;;5.32;nan;99516.78;4918548;28;20046;-83
2021/11/04 03:09:45;;;;;;;61.47;30.87;;;;;;;5.45;nan;99509.56;4916063;29;20054;-82
2021/11/04 03:12:12;;;;;;;69.57;34.37;;;;;;;5.34;nan;99504.53;4934263;29;20046;-85
2021/11/04 03:14:40;;;;;;;60.60;31.37;;;;;;;5.28;nan;99504.63;4922379;29;20050;-83
2021/11/04 03:17:07;;;;;;;67.37;33.73;;;;;;;5.42;nan;99507.88;4902564;29;20051;-83
2021/11/04 03:19:34;;;;;;;66.20;32.27;;;;;;;5.48;nan;99513.00;4904132;29;20046;-83
2021/11/04 03:22:02;;;;;;;66.63;32.63;;;;;;;5.54;nan;99501.53;4913566;29;20046;-83
2021/11/04 03:24:29;;;;;;;61.70;32.03;;;;;;;5.47;nan;99490.34;4935777;29;20043;-84
2021/11/04 03:27:05;;;;;;;56.03;29.73;;;;;;;5.47;nan;99484.22;4918977;29;20501;-82
2021/11/04 03:29:36;;;;;;;64.17;33.70;;;;;;;5.59;nan;99481.38;4932504;29;20046;-82
2021/11/04 03:32:05;;;;;;;65.27;32.07;;;;;;;5.57;nan;99475.31;4920751;29;20047;-83
2021/11/04 03:34:37;;;;;;;55.83;29.33;;;;;;;5.50;nan;99474.56;4934639;29;20039;-83
2021/11/04 03:37:05;;;;;;;61.33;30.63;;;;;;;5.53;nan;99471.00;4923180;29;20408;-82
2021/11/04 03:39:33;;;;;;;61.40;31.47;;;;;;;5.48;nan;99470.25;4906301;29;20036;-82
2021/11/04 03:42:00;;;;;;;64.03;33.23;;;;;;;5.51;nan;99468.41;4921949;29;20035;-82
2021/11/04 03:44:28;;;;;;;58.67;30.80;;;;;;;5.49;nan;99472.81;4909717;29;20077;-82
2021/11/04 03:46:56;;;;;;;60.17;30.63;;;;;;;5.51;nan;99470.16;4919297;29;20044;-83
2021/11/04 03:49:24;;;;;;;57.97;30.93;;;;;;;5.45;nan;99470.28;4934276;29;20041;-83
2021/11/04 03:51:52;;;;;;;58.60;30.53;;;;;;;5.46;nan;99469.38;4947577;28;20031;-81
2021/11/04 03:54:23;;;;;;;60.37;33.13;;;;;;;5.45;nan;99465.91;4933108;29;20032;-78
2021/11/04 03:56:51;;;;;;;56.40;31.00;;;;;;;5.52;nan;99470.13;4915669;29;20048;-80
2021/11/04 03:59:19;;;;;;;56.20;30.50;;;;;;;5.47;nan;99474.63;4915918;29;20773;-80
2021/11/04 04:01:47;;;;;;;56.57;30.23;;;;;;;5.35;nan;99480.06;4933583;29;20046;-81
2021/11/04 04:04:14;;;;;;;52.43;28.87;;;;;;;5.36;nan;99497.50;4925921;29;20043;-81
2021/11/04 04:06:41;;;;;;;58.27;31.30;;;;;;;5.40;nan;99498.31;4924634;29;20043;-79
2021/11/04 04:09:09;;;;;;;57.63;29.23;;;;;;;5.38;nan;99490.47;4936418;29;20040;-78
2021/11/04 04:11:36;;;;;;;59.33;30.80;;;;;;;5.51;nan;99481.50;4913280;29;20110;-78
2021/11/04 04:14:08;;;;;;;57.93;30.93;;;;;;;5.52;nan;99474.50;4914315;29;20446;-79
2021/11/04 04:16:36;;;;;;;51.00;28.33;;;;;;;5.56;nan;99474.44;4917194;29;20126;-78
2021/11/04 04:19:03;;;;;;;58.47;30.50;;;;;;;5.55;nan;99475.34;4919376;29;20475;-78
2021/11/04 04:21:30;;;;;;;50.67;27.80;;;;;;;5.54;nan;99470.09;4937639;29;20134;-78
2021/11/04 04:23:57;;;;;;;53.93;28.53;;;;;;;5.51;nan;99465.78;4924027;29;20103;-78
2021/11/04 04:26:25;;;;;;;55.53;27.80;;;;;;;5.54;nan;99454.38;4907892;29;20765;-78
2021/11/04 04:28:51;;;;;;;56.07;30.20;;;;;;;5.48;nan;99450.16;4960019;29;20102;-79
2021/11/04 04:31:19;;;;;;;63.73;30.70;;;;;;;5.52;nan;99450.94;4917275;28;20120;-78
2021/11/04 04:33:46;;;;;;;57.83;30.40;;;;;;;5.48;nan;99441.44;4939561;29;20122;-78
2021/11/04 04:36:13;;;;;;;56.47;30.07;;;;;;;5.45;nan;99442.31;4910831;29;20099;-79
2021/11/04 04:38:46;;;;;;;57.23;30.50;;;;;;;5.38;nan;99440.72;4916277;29;20127;-79
2021/11/04 04:41:18;;;;;;;55.93;31.70;;;;;;;5.48;nan;99421.34;4930964;29;20155;-79
2021/11/04 04:43:45;;;;;;;56.63;30.23;;;;;;;5.53;nan;99411.59;4930615;29;20625;-78
2021/11/04 04:46:12;;;;;;;52.17;27.10;;;;;;;5.45;nan;99405.66;4930266;29;20621;-79
2021/11/04 04:48:39;;;;;;;56.13;29.53;;;;;;;5.42;nan;99407.47;4927952;29;20123;-79
2021/11/04 04:51:06;;;;;;;57.20;30.17;;;;;;;5.44;nan;99405.69;4912661;29;20108;-78
2021/11/04 04:53:34;;;;;;;52.93;30.50;;;;;;;5.56;nan;99397.59;4943677;29;20146;-78
2021/11/04 04:56:06;;;;;;;53.07;28.60;;;;;;;5.47;nan;99400.41;5029674;23;20057;-81
2021/11/04 04:58:35;;;;;;;53.40;30.67;;;;;;;5.36;nan;99392.75;4950843;28;20364;-81
2021/11/04 05:01:03;;;;;;;51.23;28.17;;;;;;;5.52;nan;99383.69;4941219;28;20050;-81
2021/11/04 05:03:31;;;;;;;53.33;29.73;;;;;;;5.43;nan;99391.72;4944365;28;20983;-81
2021/11/04 05:05:58;;;;;;;50.53;27.60;;;;;;;5.47;nan;99400.41;4926332;29;20047;-81
2021/11/04 05:08:25;;;;;;;50.63;28.17;;;;;;;5.44;nan;99411.78;4918135;28;20055;-81
2021/11/04 05:10:52;;;;;;;46.53;25.67;;;;;;;5.43;nan;99409.22;4953275;29;20045;-81
2021/11/04 05:13:19;;;;;;;51.80;28.40;;;;;;;5.55;nan;99409.84;4934892;28;20039;-82
2021/11/04 05:15:45;;;;;;;53.57;27.10;;;;;;;5.51;nan;99413.41;4937223;29;20428;-82
2021/11/04 05:18:12;;;;;;;51.93;27.87;;;;;;;5.48;nan;99413.47;4936882;28;20037;-81
2021/11/04 05:20:39;;;;;;;51.40;26.50;;;;;;;5.54;nan;99420.31;4951573;29;20041;-82
2021/11/04 05:23:06;;;;;;;53.13;29.03;;;;;;;5.71;nan;99405.13;4953689;28;20050;-81
2021/11/04 05:25:33;;;;;;;52.27;27.27;;;;;;;5.67;nan;99395.63;4935189;29;20404;-81
2021/11/04 05:28:00;;;;;;;52.50;28.60;;;;;;;5.60;nan;99394.88;4920982;29;20043;-82
2021/11/04 05:30:27;;;;;;;55.30;29.43;;;;;;;5.75;nan;99396.31;4916160;29;20054;-82
2021/11/04 05:32:54;;;;;;;52.93;27.37;;;;;;;5.60;nan;99402.72;4928313;29;20056;-81
2021/11/04 05:35:21;;;;;;;54.07;28.27;;;;;;;5.67;nan;99392.13;4935523;29;20042;-81
2021/11/04 05:37:49;;;;;;;56.43;29.40;;;;;;;5.70;nan;99389.44;4936717;29;20546;-81
2021/11/04 05:40:16;;;;;;;54.37;29.70;;;;;;;5.65;nan;99387.78;4935531;29;20035;-81
2021/11/04 05:42:43;;;;;;;54.80;28.60;;;;;;;5.62;nan;99379.13;4917842;29;20386;-82
2021/11/04 05:45:10;;;;;;;53.77;29.13;;;;;;;5.61;nan;99380.88;4918066;29;20056;-81
2021/11/04 05:47:37;;;;;;;56.73;28.00;;;;;;;5.57;nan;99376.59;4952039;29;20054;-82
2021/11/04 05:50:05;;;;;;;55.17;28.73;;;;;;;5.69;nan;99378.09;4908811;29;20043;-81
2021/11/04 05:52:32;;;;;;;56.03;31.23;;;;;;;5.63;nan;99381.72;4928581;29;20036;-81
2021/11/04 05:54:59;;;;;;;54.13;28.87;;;;;;;5.54;nan;99384.50;4916065;29;20102;-81
2021/11/04 05:57:26;;;;;;;54.50;30.67;;;;;;;5.52;nan;99399.41;4913369;29;20514;-81
2021/11/04 05:59:54;;;;;;;58.73;30.70;;;;;;;5.67;nan;99395.63;4918985;29;20046;-81
2021/11/04 06:02:22;;;;;;;51.57;29.00;;;;;;;5.69;nan;99390.34;4925794;29;20039;-82
2021/11/04 06:04:50;;;;;;;60.10;31.50;;;;;;;5.70;nan;99397.31;4916249;29;20046;-81
2021/11/04 06:07:17;;;;;;;55.57;30.73;;;;;;;5.64;nan;99388.69;4941799;29;20032;-81
2021/11/04 06:09:44;;;;;;;55.17;29.00;;;;;;;5.63;nan;99383.47;4928615;29;20047;-81
2021/11/04 06:12:11;;;;;;;58.27;29.40;;;;;;;5.56;nan;99384.50;4921796;29;20078;-81
2021/11/04 06:14:38;;;;;;;58.70;31.70;;;;;;;5.67;nan;99393.00;4931439;29;20042;-81
2021/11/04 06:17:06;;;;;;;58.07;29.40;;;;;;;5.64;nan;99387.84;4924599;29;20050;-81
2021/11/04 06:19:33;;;;;;;57.37;29.70;;;;;;;5.45;nan;99382.09;4915834;29;20290;-83
2021/11/04 06:22:00;;;;;;;59.93;30.97;;;;;;;5.49;nan;99377.66;4917629;29;20054;-83
2021/11/04 06:24:27;;;;;;;57.43;30.47;;;;;;;5.60;nan;99379.16;4916570;29;20039;-83
2021/11/04 06:26:54;;;;;;;56.53;31.17;;;;;;;5.61;nan;99377.41;4927784;29;20035;-82
2021/11/04 06:29:21;;;;;;;59.20;30.80;;;;;;;5.66;nan;99367.69;4919533;29;20671;-83
2021/11/04 06:31:48;;;;;;;64.13;31.53;;;;;;;5.64;nan;99370.34;4920642;29;20047;-84
2021/11/04 06:34:15;;;;;;;61.27;31.30;;;;;;;5.57;nan;99360.88;4934854;29;20047;-84
2021/11/04 06:36:43;;;;;;;58.23;31.03;;;;;;;5.66;nan;99354.59;4936192;29;20042;-83
2021/11/04 06:39:10;;;;;;;57.67;30.63;;;;;;;5.53;nan;99350.50;4949922;28;20043;-83
2021/11/04 06:41:37;;;;;;;57.67;30.70;;;;;;;5.71;nan;99350.09;4936004;29;20035;-83
2021/11/04 06:44:04;;;;;;;57.73;30.43;;;;;;;5.67;nan;99345.84;4934110;29;20428;-83
2021/11/04 06:46:34;;;;;;;59.10;30.30;;;;;;;5.61;nan;99335.47;4935758;29;20039;-84
2021/11/04 06:49:05;;;;;;;61.27;33.30;;;;;;;5.67;nan;99339.72;4949917;29;20431;-84
2021/11/04 06:51:35;;;;;;;56.20;30.50;;;;;;;5.71;nan;99331.75;4936052;29;20039;-83
2021/11/04 06:54:04;;;;;;;54.50;29.90;;;;;;;5.72;nan;99336.13;4934335;29;20039;-83
2021/11/04 06:56:41;;;;;;;62.40;31.03;;;;;;;5.74;nan;99331.72;4935740;29;20035;-84
2021/11/04 06:59:23;;;;;;;54.50;28.73;;;;;;;5.69;nan;99335.31;4918622;29;20039;-83
2021/11/04 07:01:58;;;;;;;60.00;32.27;;;;;;;5.74;nan;99342.19;4935648;29;20352;-84
2021/11/04 07:04:28;;;;;;;60.83;32.13;;;;;;;5.80;nan;99328.06;4933207;29;20043;-82
2021/11/04 07:07:05;;;;;;;55.73;29.70;;;;;;;5.71;nan;99333.50;4919041;29;20047;-84
2021/11/04 07:09:37;;;;;;;58.20;31.23;;;;;;;5.46;nan;99333.19;4950157;29;20504;-83
2021/11/04 07:12:08;;;;;;;55.90;28.67;;;;;;;5.65;nan;99326.66;4951480;29;20050;-83
2021/11/04 07:14:36;;;;;;;62.57;31.33;;;;;;;5.67;nan;99321.38;4934057;29;20069;-82
2021/11/04 07:17:04;;;;;;;65.73;33.13;;;;;;;5.75;nan;99316.84;4919759;29;20525;-82
2021/11/04 07:19:31;;;;;;;56.83;29.23;;;;;;;5.74;nan;99309.88;4933896;29;20045;-84
2021/11/04 07:22:00;;;;;;;57.73;29.37;;;;;;;5.71;nan;99304.69;4935340;29;20031;-83
2021/11/04 07:24:33;;;;;;;61.43;32.20;;;;;;;5.71;nan;99307.31;4933682;29;20496;-83
2021/11/04 07:27:30;;;;;;;57.67;29.07;;;;;;;5.75;nan;99306.34;4903765;29;20047;-83
2021/11/04 07:30:01;;;;;;;55.60;27.37;;;;;;;5.71;nan;99308.16;4915986;29;20085;-83
2021/11/04 07:32:30;;;;;;;56.63;29.37;;;;;;;5.76;nan;99310.69;4921371;28;20057;-83
2021/11/04 07:34:58;;;;;;;55.43;29.90;;;;;;;5.84;nan;99308.78;4937887;29;20047;-83
2021/11/04 07:37:31;;;;;;;57.60;30.60;;;;;;;5.73;nan;99301.16;4939122;29;20038;-83
2021/11/04 07:39:59;;;;;;;58.03;29.73;;;;;;;5.69;nan;99312.59;4906352;29;20054;-83
2021/11/04 07:42:26;;;;;;;56.80;30.57;;;;;;;5.66;nan;99307.44;4938925;29;20531;-83
2021/11/04 07:44:53;;;;;;;54.50;30.13;;;;;;;5.76;nan;99292.34;4921715;29;20043;-83
2021/11/04 07:47:20;;;;;;;60.67;30.03;;;;;;;5.67;nan;99297.81;4939065;29;20564;-83
2021/11/04 07:49:47;;;;;;;55.67;30.57;;;;;;;5.76;nan;99300.22;4953375;29;20050;-82
2021/11/04 07:52:13;;;;;;;61.37;32.77;;;;;;;5.71;nan;99295.06;4938760;29;20049;-83
2021/11/04 07:54:41;;;;;;;58.73;30.37;;;;;;;5.72;nan;99294.19;4953537;28;20407;-83
2021/11/04 07:57:08;;;;;;;59.67;32.40;;;;;;;5.72;nan;99293.31;4938724;29;20035;-83
2021/11/04 07:59:35;;;;;;;62.40;32.97;;;;;;;5.79;nan;99281.78;4937125;29;20452;-83
2021/11/04 08:02:03;;;;;;;60.23;31.00;;;;;;;5.71;nan;99278.50;4938752;29;20043;-83
2021/11/04 08:04:33;;;;;;;62.37;32.03;;;;;;;5.65;nan;99277.75;4922672;29;20049;-82
2021/11/04 08:07:00;;;;;;;64.17;32.67;;;;;;;5.77;nan;99275.72;4938605;29;20036;-83
2021/11/04 08:09:27;;;;;;;59.53;32.50;;;;;;;5.69;nan;99269.81;4921745;29;20073;-84
2021/11/04 08:11:54;;;;;;;61.17;31.60;;;;;;;5.71;nan;99268.00;4943564;29;20050;-83
2021/11/04 08:14:21;;;;;;;66.10;32.90;;;;;;;5.82;nan;99263.41;4902536;29;20051;-83
2021/11/04 08:16:49;;;;;;;57.97;31.37;;;;;;;5.79;nan;99255.59;4903826;29;20063;-83
2021/11/04 08:19:17;;;;;;;61.43;31.60;;;;;;;5.82;nan;99248.53;4917986;29;20058;-82
2021/11/04 08:21:44;;;;;;;59.67;31.50;;;;;;;5.82;nan;99247.66;4942907;29;20046;-83
2021/11/04 08:24:11;;;;;;;59.63;30.97;;;;;;;5.76;nan;99245.19;4921093;29;20051;-83
2021/11/04 08:26:38;;;;;;;60.83;31.57;;;;;;;5.79;nan;99245.09;4938231;29;20485;-83
2021/11/04 08:29:05;;;;;;;61.97;32.73;;;;;;;5.94;nan;99242.16;4936644;29;20102;-82
2021/11/04 08:31:32;;;;;;;60.07;31.40;;;;;;;5.91;nan;99244.88;4938700;29;20050;-82
2021/11/04 08:33:59;;;;;;;62.40;32.10;;;;;;;5.87;nan;99232.69;4936875;29;20047;-83
2021/11/04 08:36:26;;;;;;;56.93;30.20;;;;;;;5.81;nan;99238.09;4938108;29;20051;-84
2021/11/04 08:38:53;;;;;;;61.13;32.03;;;;;;;5.81;nan;99227.63;4952596;29;20043;-83
2021/11/04 08:41:21;;;;;;;55.70;28.70;;;;;;;5.72;nan;99226.06;4937800;29;20050;-83
2021/11/04 08:43:48;;;;;;;65.57;34.93;;;;;;;5.81;nan;99212.75;4920332;29;20065;-83
2021/11/04 08:46:15;;;;;;;62.27;33.50;;;;;;;5.81;nan;99223.22;4938024;29;20039;-83
2021/11/04 08:48:42;;;;;;;68.90;32.43;;;;;;;5.63;nan;99214.06;4936614;29;20051;-83
2021/11/04 08:51:09;;;;;;;60.97;33.23;;;;;;;5.71;nan;99219.09;4953568;28;20041;-83
2021/11/04 08:53:37;;;;;;;62.23;32.43;;;;;;;5.77;nan;99215.47;4936432;29;20055;-83
2021/11/04 08:56:09;;;;;;;59.97;32.90;;;;;;;5.80;nan;99211.03;4938358;29;20050;-84
2021/11/04 08:58:38;;;;;;;62.70;33.27;;;;;;;5.92;nan;99209.88;4951686;29;20043;-83
2021/11/04 09:01:10;;;;;;;64.60;32.23;;;;;;;5.85;nan;99216.13;4938178;29;20043;-84
2021/11/04 09:03:37;;;;;;;61.00;33.83;;;;;;;5.82;nan;99206.59;4920796;29;20439;-83
2021/11/04 09:06:04;;;;;;;63.13;33.07;;;;;;;5.87;nan;99209.09;4937817;29;20054;-84
2021/11/04 09:08:31;;;;;;;62.07;33.20;;;;;;;5.86;nan;99204.75;4935996;28;20050;-84
2021/11/04 09:11:02;;;;;;;69.77;38.73;;;;;;;5.95;nan;99201.94;4938366;29;20042;-83
2021/11/04 09:13:29;;;;;;;74.60;36.20;;;;;;;5.95;nan;99196.69;4920515;29;20047;-83
2021/11/04 09:15:56;;;;;;;65.63;33.37;;;;;;;5.87;nan;99196.84;4921953;29;20055;-82
2021/11/04 09:18:23;;;;;;;68.97;35.37;;;;;;;5.82;nan;99195.25;4920230;29;20143;-83
2021/11/04 09:20:49;;;;;;;73.97;38.07;;;;;;;5.87;nan;99188.97;4904250;29;20047;-84
2021/11/04 09:23:16;;;;;;;72.47;35.13;;;;;;;5.84;nan;99189.06;4933974;29;20035;-84
2021/11/04 09:25:44;;;;;;;72.10;36.67;;;;;;;5.67;nan;99177.28;4892983;29;20051;-84
2021/11/04 09:28:11;;;;;;;71.40;39.47;;;;;;;5.63;nan;99186.97;4901440;29;20042;-84
2021/11/04 09:30:38;;;;;;;72.23;37.07;;;;;;;5.85;nan;99171.59;4924457;29;20420;-83
2021/11/04 09:33:05;;;;;;;67.33;35.50;;;;;;;5.88;nan;99166.25;4918766;29;20047;-83
2021/11/04 09:35:35;;;;;;;76.53;37.60;;;;;;;5.74;nan;99173.63;4942884;29;20036;-84
2021/11/04 09:38:04;;;;;;;71.70;36.87;;;;;;;5.74;nan;99164.00;4952389;29;20039;-83
2021/11/04 09:40:31;;;;;;;76.23;37.23;;;;;;;5.69;nan;99159.75;4919796;29;20050;-84
2021/11/04 09:42:58;;;;;;;68.73;37.03;;;;;;;5.74;nan;99150.03;4920918;29;20043;-83
2021/11/04 09:45:26;;;;;;;66.40;33.93;;;;;;;5.77;nan;99145.56;4951276;28;20109;-82
2021/11/04 09:47:53;;;;;;;68.87;33.27;;;;;;;5.82;nan;99141.09;4921022;29;20496;-85
2021/11/04 09:50:20;;;;;;;68.97;34.87;;;;;;;5.78;nan;99139.41;4935316;29;20404;-84
2021/11/04 09:52:53;;;;;;;61.53;33.17;;;;;;;5.77;nan;99135.09;4936692;29;20039;-84
2021/11/04 09:55:25;;;;;;;61.63;31.87;;;;;;;5.82;nan;99138.47;4934522;29;20045;-85
2021/11/04 09:57:56;;;;;;;62.03;30.83;;;;;;;5.73;nan;99128.22;4920600;29;20045;-84
2021/11/04 10:00:33;;;;;;;59.77;31.27;;;;;;;5.82;nan;99112.25;4919694;29;20047;-85
2021/11/04 10:03:11;;;;;;;56.00;29.57;;;;;;;5.71;nan;99108.16;4905208;29;20051;-82
2021/11/04 10:05:43;;;;;;;58.77;30.47;;;;;;;5.82;nan;99106.16;4920525;29;20045;-84
2021/11/04 10:08:14;;;;;;;54.83;30.70;;;;;;;5.74;nan;99102.88;4951489;28;20069;-83
2021/11/04 10:10:45;;;;;;;55.83;28.90;;;;;;;5.74;nan;99097.63;4952931;29;20039;-83
2021/11/04 10:13:12;;;;;;;57.87;30.40;;;;;;;5.76;nan;99085.34;4904236;29;20062;-80
2021/11/04 10:15:41;;;;;;;61.97;31.23;;;;;;;5.83;nan;99079.03;4935513;29;20061;-83
2021/11/04 10:18:18;;;;;;;58.50;30.87;;;;;;;5.65;nan;99072.53;4919991;29;20043;-83
2021/11/04 10:21:03;;;;;;;49.03;28.60;;;;;;;5.72;nan;99061.00;4928719;29;20035;-82
2021/11/04 10:23:46;;;;;;;56.20;28.70;;;;;;;5.65;nan;99059.44;4943430;28;21448;-83
2021/11/04 10:26:18;;;;;;;61.20;30.73;;;;;;;5.75;nan;99070.53;4920513;29;20556;-82
2021/11/04 10:28:47;;;;;;;54.67;28.67;;;;;;;5.79;nan;99041.56;4931138;29;20044;-82
2021/11/04 10:31:20;;;;;;;57.73;30.73;;;;;;;5.75;nan;99025.97;4948616;29;20055;-82
2021/11/04 10:33:48;;;;;;;50.87;27.60;;;;;;;5.77;nan;99027.66;4916451;29;20317;-84
2021/11/04 10:36:20;;;;;;;46.77;25.23;;;;;;;5.79;nan;99012.72;4905818;29;20402;-81
2021/11/04 10:38:53;;;;;;;48.53;25.87;;;;;;;5.79;nan;98998.78;4917301;29;20062;-80
2021/11/04 10:41:40;;;;;;;47.67;26.13;;;;;;;5.76;nan;98991.00;4920203;29;20043;-82
2021/11/04 10:44:10;;;;;;;44.10;23.80;;;;;;;5.92;nan;98984.47;4938355;29;20045;-81
2021/11/04 10:46:43;;;;;;;42.27;23.37;;;;;;;5.86;nan;98988.06;4960354;29;20114;-80
2021/11/04 10:49:10;;;;;;;41.83;23.10;;;;;;;5.81;nan;98982.13;4937036;29;20137;-82
2021/11/04 10:51:38;;;;;;;38.90;23.17;;;;;;;5.87;nan;98974.06;4927275;29;20720;-84
2021/11/04 10:54:13;;;;;;;45.67;24.17;;;;;;;5.97;nan;98964.25;4916201;29;20520;-82
2021/11/04 10:56:45;;;;;;;42.63;22.40;;;;;;;5.87;nan;98965.34;4932985;29;20053;-82
2021/11/04 10:59:13;;;;;;;38.93;21.13;;;;;;;5.95;nan;98952.91;4934410;29;20053;-81
2021/11/04 11:07:19;;;;;;;42.67;23.17;;;;;;;5.93;nan;98918.03;4973068;28;20458;-81
2021/11/04 11:09:46;;;;;;;36.50;20.83;;;;;;;5.85;nan;98920.00;4955773;28;20042;-82
2021/11/04 11:12:22;;;;;;;33.37;19.43;;;;;;;5.94;nan;98917.13;4942981;28;20450;-81
2021/11/04 11:15:16;;;;;;;36.03;19.43;;;;;;;5.97;nan;98909.19;4964233;28;20117;-80
2021/11/04 11:17:45;;;;;;;30.13;17.27;;;;;;;5.99;nan;98894.28;4939501;29;20047;-82
2021/11/04 11:20:13;;;;;;;29.23;16.83;;;;;;;5.90;nan;98899.75;4922847;28;20042;-83
2021/11/04 11:22:42;;;;;;;32.27;18.27;;;;;;;5.95;nan;98892.63;4940133;28;20038;-82
2021/11/04 11:25:10;;;;;;;26.07;15.47;;;;;;;5.90;nan;98891.91;4954967;28;20039;-83
2021/11/04 11:27:37;;;;;;;27.87;15.00;;;;;;;6.04;nan;98889.72;4940012;28;20106;-85
2021/11/04 11:30:08;;;;;;;24.83;14.87;;;;;;;6.07;nan;98887.03;4947477;28;20049;-84
2021/11/04 11:32:39;;;;;;;20.47;13.70;;;;;;;6.05;nan;98869.63;4956366;28;20045;-83
2021/11/04 11:35:15;;;;;;;26.13;14.27;;;;;;;6.05;nan;98874.84;4954339;28;20443;-83
2021/11/04 11:37:54;;;;;;;22.23;13.63;;;;;;;6.11;nan;98866.81;4939525;28;20047;-82
2021/11/04 11:40:31;;;;;;;23.73;14.17;;;;;;;6.11;nan;98859.81;4938545;28;20043;-83
2021/11/04 11:43:04;;;;;;;26.17;15.40;;;;;;;6.12;nan;98853.66;4939344;28;20061;-82
2021/11/04 11:45:36;;;;;;;18.27;11.60;;;;;;;6.10;nan;98852.84;4938513;28;20047;-82
2021/11/04 11:48:23;;;;;;;18.10;11.37;;;;;;;6.12;nan;98845.78;4939831;28;20041;-83
2021/11/04 11:50:52;;;;;;;20.50;11.83;;;;;;;6.12;nan;98843.16;4956082;28;20061;-84
2021/11/04 11:53:38;;;;;;;19.00;11.03;;;;;;;6.13;nan;98839.63;4954430;28;20043;-82
2021/11/04 11:56:25;;;;;;;16.67;10.93;;;;;;;6.18;nan;98848.22;4952604;28;20111;-80